sensor_id;sensor_type;location;lat;lon;timestamp;pressure;altitude;pressure_sealevel;temperature;humidity
34065;BME280;20339;49.754;20.158;2024-02-21T00:00:30;97268.77;;;3.37;98.58
34065;BME280;20339;49.754;20.158;2024-02-21T00:03:31;97269.47;;;3.36;98.63
34065;BME280;20339;49.754;20.158;2024-02-21T00:06:05;97274.33;;;3.35;98.66
34065;BME280;20339;49.754;20.158;2024-02-21T00:08:37;97274.86;;;3.37;98.94
34065;BME280;20339;49.754;20.158;2024-02-21T00:11:13;97276.07;;;3.40;98.86
34065;BME280;20339;49.754;20.158;2024-02-21T00:13:47;97275.89;;;3.41;98.78
34065;BME280;20339;49.754;20.158;2024-02-21T00:16:22;97276.21;;;3.41;98.89
34065;BME280;20339;49.754;20.158;2024-02-21T00:19:00;97274.45;;;3.40;99.22
34065;BME280;20339;49.754;20.158;2024-02-21T00:21:31;97273.50;;;3.38;99.36
34065;BME280;20339;49.754;20.158;2024-02-21T00:24:03;97270.30;;;3.37;99.28
34065;BME280;20339;49.754;20.158;2024-02-21T00:26:34;97270.69;;;3.35;99.44
34065;BME280;20339;49.754;20.158;2024-02-21T00:29:09;97275.90;;;3.34;99.40
34065;BME280;20339;49.754;20.158;2024-02-21T00:31:42;97268.47;;;3.36;99.27
34065;BME280;20339;49.754;20.158;2024-02-21T00:34:16;97273.55;;;3.40;99.31
34065;BME280;20339;49.754;20.158;2024-02-21T00:36:48;97273.04;;;3.44;99.30
34065;BME280;20339;49.754;20.158;2024-02-21T00:39:20;97271.86;;;3.47;99.13
34065;BME280;20339;49.754;20.158;2024-02-21T00:41:51;97267.08;;;3.50;99.13
34065;BME280;20339;49.754;20.158;2024-02-21T00:44:27;97267.13;;;3.52;98.98
34065;BME280;20339;49.754;20.158;2024-02-21T00:47:01;97265.50;;;3.50;98.66
34065;BME280;20339;49.754;20.158;2024-02-21T00:49:35;97263.35;;;3.48;98.43
34065;BME280;20339;49.754;20.158;2024-02-21T00:52:07;97263.49;;;3.46;98.23
34065;BME280;20339;49.754;20.158;2024-02-21T00:54:38;97258.77;;;3.42;98.16
34065;BME280;20339;49.754;20.158;2024-02-21T00:57:12;97261.77;;;3.38;98.02
34065;BME280;20339;49.754;20.158;2024-02-21T00:59:45;97264.02;;;3.34;97.88
34065;BME280;20339;49.754;20.158;2024-02-21T01:02:16;97261.86;;;3.32;97.85
34065;BME280;20339;49.754;20.158;2024-02-21T01:04:50;97261.48;;;3.26;97.60
34065;BME280;20339;49.754;20.158;2024-02-21T01:07:24;97262.85;;;3.23;97.61
34065;BME280;20339;49.754;20.158;2024-02-21T01:09:56;97261.61;;;3.22;97.46
34065;BME280;20339;49.754;20.158;2024-02-21T01:12:28;97260.62;;;3.20;97.43
34065;BME280;20339;49.754;20.158;2024-02-21T01:15:08;97256.63;;;3.21;97.39
34065;BME280;20339;49.754;20.158;2024-02-21T01:17:42;97254.03;;;3.19;97.22
34065;BME280;20339;49.754;20.158;2024-02-21T01:20:18;97247.05;;;3.15;97.19
34065;BME280;20339;49.754;20.158;2024-02-21T01:22:52;97240.64;;;3.12;97.26
34065;BME280;20339;49.754;20.158;2024-02-21T01:25:23;97241.84;;;3.12;97.14
34065;BME280;20339;49.754;20.158;2024-02-21T01:27:56;97238.57;;;3.07;97.23
34065;BME280;20339;49.754;20.158;2024-02-21T01:30:30;97237.40;;;3.03;97.36
34065;BME280;20339;49.754;20.158;2024-02-21T01:33:08;97238.13;;;2.99;97.34
34065;BME280;20339;49.754;20.158;2024-02-21T01:35:42;97238.59;;;2.98;97.36
34065;BME280;20339;49.754;20.158;2024-02-21T01:38:14;97239.48;;;3.01;97.45
34065;BME280;20339;49.754;20.158;2024-02-21T01:40:48;97236.73;;;3.02;97.39
34065;BME280;20339;49.754;20.158;2024-02-21T01:43:20;97233.23;;;3.04;97.38
34065;BME280;20339;49.754;20.158;2024-02-21T01:45:52;97232.45;;;3.06;97.30
34065;BME280;20339;49.754;20.158;2024-02-21T01:48:25;97231.71;;;3.07;97.19
34065;BME280;20339;49.754;20.158;2024-02-21T01:50:59;97227.20;;;3.07;97.13
34065;BME280;20339;49.754;20.158;2024-02-21T01:53:42;97225.40;;;3.07;97.15
34065;BME280;20339;49.754;20.158;2024-02-21T01:56:13;97230.77;;;3.06;97.15
34065;BME280;20339;49.754;20.158;2024-02-21T01:58:46;97228.19;;;3.05;97.13
34065;BME280;20339;49.754;20.158;2024-02-21T02:01:33;97225.89;;;3.06;97.09
34065;BME280;20339;49.754;20.158;2024-02-21T02:04:05;97225.69;;;3.06;97.25
34065;BME280;20339;49.754;20.158;2024-02-21T02:06:38;97222.35;;;3.05;97.28
34065;BME280;20339;49.754;20.158;2024-02-21T02:09:18;97223.09;;;3.07;97.45
34065;BME280;20339;49.754;20.158;2024-02-21T02:11:52;97221.74;;;3.05;97.26
34065;BME280;20339;49.754;20.158;2024-02-21T02:14:24;97218.84;;;3.03;97.18
34065;BME280;20339;49.754;20.158;2024-02-21T02:16:58;97215.26;;;2.98;97.06
34065;BME280;20339;49.754;20.158;2024-02-21T02:19:34;97209.05;;;2.91;96.91
34065;BME280;20339;49.754;20.158;2024-02-21T02:22:13;97210.63;;;2.86;97.08
34065;BME280;20339;49.754;20.158;2024-02-21T02:24:48;97209.85;;;2.84;97.18
34065;BME280;20339;49.754;20.158;2024-02-21T02:27:20;97207.42;;;2.85;97.27
34065;BME280;20339;49.754;20.158;2024-02-21T02:29:54;97205.45;;;2.84;97.28
34065;BME280;20339;49.754;20.158;2024-02-21T02:32:30;97204.09;;;2.84;97.28
34065;BME280;20339;49.754;20.158;2024-02-21T02:35:13;97201.02;;;2.85;97.41
34065;BME280;20339;49.754;20.158;2024-02-21T02:37:53;97199.79;;;2.87;97.43
34065;BME280;20339;49.754;20.158;2024-02-21T02:40:26;97198.73;;;2.92;97.70
34065;BME280;20339;49.754;20.158;2024-02-21T02:42:58;97195.40;;;2.96;97.79
34065;BME280;20339;49.754;20.158;2024-02-21T02:45:34;97189.41;;;3.01;97.83
34065;BME280;20339;49.754;20.158;2024-02-21T02:48:09;97178.67;;;3.05;97.84
34065;BME280;20339;49.754;20.158;2024-02-21T02:50:40;97172.95;;;3.05;97.74
34065;BME280;20339;49.754;20.158;2024-02-21T02:53:14;97180.86;;;3.04;97.63
34065;BME280;20339;49.754;20.158;2024-02-21T02:55:45;97183.29;;;2.99;97.44
34065;BME280;20339;49.754;20.158;2024-02-21T02:58:16;97175.47;;;2.99;97.62
34065;BME280;20339;49.754;20.158;2024-02-21T03:00:50;97167.15;;;3.01;97.73
34065;BME280;20339;49.754;20.158;2024-02-21T03:03:21;97170.19;;;2.99;97.58
34065;BME280;20339;49.754;20.158;2024-02-21T03:05:53;97174.64;;;2.97;97.38
34065;BME280;20339;49.754;20.158;2024-02-21T03:08:24;97184.45;;;2.93;97.28
34065;BME280;20339;49.754;20.158;2024-02-21T03:10:55;97191.21;;;2.90;97.37
34065;BME280;20339;49.754;20.158;2024-02-21T03:13:28;97188.70;;;2.88;97.38
34065;BME280;20339;49.754;20.158;2024-02-21T03:16:01;97183.94;;;2.88;97.38
34065;BME280;20339;49.754;20.158;2024-02-21T03:18:35;97180.80;;;2.88;97.48
34065;BME280;20339;49.754;20.158;2024-02-21T03:21:12;97182.11;;;2.90;97.57
34065;BME280;20339;49.754;20.158;2024-02-21T03:23:43;97181.59;;;2.94;97.60
34065;BME280;20339;49.754;20.158;2024-02-21T03:26:17;97177.66;;;2.98;97.73
34065;BME280;20339;49.754;20.158;2024-02-21T03:28:50;97175.94;;;3.05;97.89
34065;BME280;20339;49.754;20.158;2024-02-21T03:31:22;97174.23;;;3.07;97.82
34065;BME280;20339;49.754;20.158;2024-02-21T03:34:01;97176.61;;;3.06;97.59
34065;BME280;20339;49.754;20.158;2024-02-21T03:36:34;97176.64;;;3.03;97.48
34065;BME280;20339;49.754;20.158;2024-02-21T03:39:06;97179.92;;;3.01;97.47
34065;BME280;20339;49.754;20.158;2024-02-21T03:41:45;97181.33;;;2.98;97.52
34065;BME280;20339;49.754;20.158;2024-02-21T03:44:23;97184.42;;;2.99;97.66
34065;BME280;20339;49.754;20.158;2024-02-21T03:46:56;97185.08;;;2.97;97.54
34065;BME280;20339;49.754;20.158;2024-02-21T03:49:30;97184.11;;;2.97;97.44
34065;BME280;20339;49.754;20.158;2024-02-21T03:52:03;97181.65;;;2.97;97.54
34065;BME280;20339;49.754;20.158;2024-02-21T03:54:37;97178.04;;;3.01;97.71
34065;BME280;20339;49.754;20.158;2024-02-21T03:57:10;97176.16;;;3.05;97.83
34065;BME280;20339;49.754;20.158;2024-02-21T03:59:43;97181.16;;;3.06;97.73
34065;BME280;20339;49.754;20.158;2024-02-21T04:02:17;97178.32;;;3.07;97.80
34065;BME280;20339;49.754;20.158;2024-02-21T04:04:50;97175.52;;;3.08;97.84
34065;BME280;20339;49.754;20.158;2024-02-21T04:07:24;97176.70;;;3.09;97.64
34065;BME280;20339;49.754;20.158;2024-02-21T04:09:56;97176.03;;;3.13;98.01
34065;BME280;20339;49.754;20.158;2024-02-21T04:12:31;97175.76;;;3.15;97.94
34065;BME280;20339;49.754;20.158;2024-02-21T04:15:06;97177.33;;;3.16;97.74
34065;BME280;20339;49.754;20.158;2024-02-21T04:17:40;97176.48;;;3.17;97.75
34065;BME280;20339;49.754;20.158;2024-02-21T04:20:17;97172.51;;;3.21;97.90
34065;BME280;20339;49.754;20.158;2024-02-21T04:22:51;97164.75;;;3.24;97.81
34065;BME280;20339;49.754;20.158;2024-02-21T04:25:24;97166.05;;;3.21;97.72
34065;BME280;20339;49.754;20.158;2024-02-21T04:28:02;97167.25;;;3.19;97.66
34065;BME280;20339;49.754;20.158;2024-02-21T04:30:42;97166.59;;;3.20;97.75
34065;BME280;20339;49.754;20.158;2024-02-21T04:33:13;97163.66;;;3.22;97.88
34065;BME280;20339;49.754;20.158;2024-02-21T04:35:51;97163.80;;;3.21;97.87
34065;BME280;20339;49.754;20.158;2024-02-21T04:38:25;97161.80;;;3.23;98.06
34065;BME280;20339;49.754;20.158;2024-02-21T04:40:56;97159.61;;;3.22;97.76
34065;BME280;20339;49.754;20.158;2024-02-21T04:43:35;97165.21;;;3.17;97.58
34065;BME280;20339;49.754;20.158;2024-02-21T04:46:10;97163.93;;;3.14;97.52
34065;BME280;20339;49.754;20.158;2024-02-21T04:48:41;97158.13;;;3.10;97.38
34065;BME280;20339;49.754;20.158;2024-02-21T04:51:17;97160.02;;;3.05;97.28
34065;BME280;20339;49.754;20.158;2024-02-21T04:53:53;97152.58;;;3.01;97.30
34065;BME280;20339;49.754;20.158;2024-02-21T04:56:24;97153.78;;;2.97;97.29
34065;BME280;20339;49.754;20.158;2024-02-21T04:58:57;97150.31;;;2.95;97.37
34065;BME280;20339;49.754;20.158;2024-02-21T05:01:29;97152.30;;;2.95;97.54
34065;BME280;20339;49.754;20.158;2024-02-21T05:04:05;97146.77;;;2.94;97.44
34065;BME280;20339;49.754;20.158;2024-02-21T05:06:40;97146.89;;;2.91;97.26
34065;BME280;20339;49.754;20.158;2024-02-21T05:09:19;97146.22;;;2.90;97.36
34065;BME280;20339;49.754;20.158;2024-02-21T05:11:52;97146.10;;;2.89;97.35
34065;BME280;20339;49.754;20.158;2024-02-21T05:14:23;97145.43;;;2.88;97.41
34065;BME280;20339;49.754;20.158;2024-02-21T05:16:55;97145.54;;;2.86;97.39
34065;BME280;20339;49.754;20.158;2024-02-21T05:19:29;97142.16;;;2.85;97.36
34065;BME280;20339;49.754;20.158;2024-02-21T05:22:04;97141.89;;;2.85;97.37
34065;BME280;20339;49.754;20.158;2024-02-21T05:24:38;97140.75;;;2.85;97.34
34065;BME280;20339;49.754;20.158;2024-02-21T05:27:10;97137.84;;;2.84;97.29
34065;BME280;20339;49.754;20.158;2024-02-21T05:29:43;97136.77;;;2.79;97.09
34065;BME280;20339;49.754;20.158;2024-02-21T05:32:17;97140.13;;;2.77;97.14
34065;BME280;20339;49.754;20.158;2024-02-21T05:34:51;97136.39;;;2.73;97.09
34065;BME280;20339;49.754;20.158;2024-02-21T05:37:22;97136.67;;;2.70;97.09
34065;BME280;20339;49.754;20.158;2024-02-21T05:39:53;97144.41;;;2.66;97.19
34065;BME280;20339;49.754;20.158;2024-02-21T05:42:28;97146.75;;;2.67;97.36
34065;BME280;20339;49.754;20.158;2024-02-21T05:44:59;97149.41;;;2.67;97.40
34065;BME280;20339;49.754;20.158;2024-02-21T05:47:33;97151.34;;;2.65;97.43
34065;BME280;20339;49.754;20.158;2024-02-21T05:50:08;97150.33;;;2.67;97.41
34065;BME280;20339;49.754;20.158;2024-02-21T05:52:40;97146.39;;;2.65;97.34
34065;BME280;20339;49.754;20.158;2024-02-21T05:55:11;97139.95;;;2.67;97.47
34065;BME280;20339;49.754;20.158;2024-02-21T05:57:44;97143.96;;;2.68;97.49
34065;BME280;20339;49.754;20.158;2024-02-21T06:00:17;97139.06;;;2.71;97.57
34065;BME280;20339;49.754;20.158;2024-02-21T06:02:52;97135.11;;;2.76;97.66
34065;BME280;20339;49.754;20.158;2024-02-21T06:05:28;97141.46;;;2.80;97.73
34065;BME280;20339;49.754;20.158;2024-02-21T06:08:01;97140.95;;;2.94;98.11
34065;BME280;20339;49.754;20.158;2024-02-21T06:10:34;97133.12;;;3.40;98.37
34065;BME280;20339;49.754;20.158;2024-02-21T06:13:07;97134.70;;;3.91;97.98
34065;BME280;20339;49.754;20.158;2024-02-21T06:15:41;97130.11;;;3.99;96.92
34065;BME280;20339;49.754;20.158;2024-02-21T06:18:12;97131.77;;;3.84;96.55
34065;BME280;20339;49.754;20.158;2024-02-21T06:20:44;97130.43;;;3.78;96.44
34065;BME280;20339;49.754;20.158;2024-02-21T06:23:19;97129.59;;;3.69;96.31
34065;BME280;20339;49.754;20.158;2024-02-21T06:25:53;97130.30;;;3.73;96.50
34065;BME280;20339;49.754;20.158;2024-02-21T06:28:24;97127.80;;;3.85;96.58
34065;BME280;20339;49.754;20.158;2024-02-21T06:31:03;97126.38;;;3.97;96.48
34065;BME280;20339;49.754;20.158;2024-02-21T06:33:40;97124.29;;;4.16;96.35
34065;BME280;20339;49.754;20.158;2024-02-21T06:36:12;97117.92;;;4.30;95.98
34065;BME280;20339;49.754;20.158;2024-02-21T06:38:48;97119.88;;;4.44;96.02
34065;BME280;20339;49.754;20.158;2024-02-21T06:41:21;97112.71;;;4.79;95.98
34065;BME280;20339;49.754;20.158;2024-02-21T06:43:52;97113.99;;;4.78;94.96
34065;BME280;20339;49.754;20.158;2024-02-21T06:46:29;97118.14;;;4.52;94.56
34065;BME280;20339;49.754;20.158;2024-02-21T06:49:06;97120.81;;;4.31;94.37
34065;BME280;20339;49.754;20.158;2024-02-21T06:51:40;97117.89;;;4.27;94.85
34065;BME280;20339;49.754;20.158;2024-02-21T06:54:14;97123.23;;;4.23;94.47
34065;BME280;20339;49.754;20.158;2024-02-21T06:56:46;97127.61;;;4.27;94.88
34065;BME280;20339;49.754;20.158;2024-02-21T06:59:18;97123.11;;;4.31;94.56
34065;BME280;20339;49.754;20.158;2024-02-21T07:01:58;97130.00;;;4.27;94.36
34065;BME280;20339;49.754;20.158;2024-02-21T07:04:33;97133.08;;;4.20;94.13
34065;BME280;20339;49.754;20.158;2024-02-21T07:07:06;97137.42;;;4.07;93.79
34065;BME280;20339;49.754;20.158;2024-02-21T07:09:44;97136.02;;;3.95;93.89
34065;BME280;20339;49.754;20.158;2024-02-21T07:12:18;97134.12;;;3.89;93.87
34065;BME280;20339;49.754;20.158;2024-02-21T07:14:50;97129.33;;;3.82;93.74
34065;BME280;20339;49.754;20.158;2024-02-21T07:17:23;97133.91;;;3.93;94.13
34065;BME280;20339;49.754;20.158;2024-02-21T07:19:55;97130.14;;;5.18;95.42
34065;BME280;20339;49.754;20.158;2024-02-21T07:22:28;97132.09;;;6.52;94.34
34065;BME280;20339;49.754;20.158;2024-02-21T07:25:00;97127.09;;;7.91;93.61
34065;BME280;20339;49.754;20.158;2024-02-21T07:27:31;97122.49;;;8.99;92.52
34065;BME280;20339;49.754;20.158;2024-02-21T07:30:07;97118.30;;;10.13;91.85
34065;BME280;20339;49.754;20.158;2024-02-21T07:32:42;97110.60;;;10.98;90.14
34065;BME280;20339;49.754;20.158;2024-02-21T07:35:19;97113.44;;;10.35;87.05
34065;BME280;20339;49.754;20.158;2024-02-21T07:37:52;97114.17;;;10.14;86.89
34065;BME280;20339;49.754;20.158;2024-02-21T07:40:24;97111.07;;;10.17;86.95
34065;BME280;20339;49.754;20.158;2024-02-21T07:42:56;97110.00;;;10.61;86.07
34065;BME280;20339;49.754;20.158;2024-02-21T07:45:27;97116.60;;;11.02;84.16
34065;BME280;20339;49.754;20.158;2024-02-21T07:48:04;97114.26;;;11.42;82.97
34065;BME280;20339;49.754;20.158;2024-02-21T07:50:40;97112.83;;;11.87;81.55
34065;BME280;20339;49.754;20.158;2024-02-21T07:53:14;97103.55;;;12.02;80.02
34065;BME280;20339;49.754;20.158;2024-02-21T07:55:46;97101.11;;;12.36;79.92
34065;BME280;20339;49.754;20.158;2024-02-21T07:58:19;97098.63;;;12.84;78.99
34065;BME280;20339;49.754;20.158;2024-02-21T08:00:51;97089.23;;;13.05;76.85
34065;BME280;20339;49.754;20.158;2024-02-21T08:03:25;97085.11;;;12.78;75.38
34065;BME280;20339;49.754;20.158;2024-02-21T08:05:58;97077.63;;;13.11;75.62
34065;BME280;20339;49.754;20.158;2024-02-21T08:08:32;97074.40;;;13.38;74.78
34065;BME280;20339;49.754;20.158;2024-02-21T08:11:03;97066.31;;;13.52;73.94
34065;BME280;20339;49.754;20.158;2024-02-21T08:13:39;97065.30;;;13.29;72.48
34065;BME280;20339;49.754;20.158;2024-02-21T08:16:13;97065.11;;;12.56;71.42
34065;BME280;20339;49.754;20.158;2024-02-21T08:18:45;97066.70;;;11.76;70.22
34065;BME280;20339;49.754;20.158;2024-02-21T08:21:24;97069.00;;;11.04;69.92
34065;BME280;20339;49.754;20.158;2024-02-21T08:23:56;97065.90;;;10.87;70.43
34065;BME280;20339;49.754;20.158;2024-02-21T08:26:33;97063.23;;;11.42;71.34
34065;BME280;20339;49.754;20.158;2024-02-21T08:29:06;97062.00;;;11.70;69.87
34065;BME280;20339;49.754;20.158;2024-02-21T08:31:43;97060.11;;;11.74;69.35
34065;BME280;20339;49.754;20.158;2024-02-21T08:34:17;97056.65;;;11.55;68.59
34065;BME280;20339;49.754;20.158;2024-02-21T08:36:49;97059.15;;;11.28;67.16
34065;BME280;20339;49.754;20.158;2024-02-21T08:39:20;97060.78;;;11.01;67.27
34065;BME280;20339;49.754;20.158;2024-02-21T08:41:51;97055.21;;;11.32;68.24
34065;BME280;20339;49.754;20.158;2024-02-21T08:44:23;97053.37;;;11.53;67.95
34065;BME280;20339;49.754;20.158;2024-02-21T08:47:00;97052.86;;;11.59;67.76
34065;BME280;20339;49.754;20.158;2024-02-21T08:49:34;97052.36;;;11.54;67.39
34065;BME280;20339;49.754;20.158;2024-02-21T08:52:08;97050.94;;;11.13;66.52
34065;BME280;20339;49.754;20.158;2024-02-21T08:54:42;97052.88;;;10.74;66.77
34065;BME280;20339;49.754;20.158;2024-02-21T08:57:16;97045.38;;;10.39;66.97
34065;BME280;20339;49.754;20.158;2024-02-21T08:59:49;97042.70;;;10.08;67.22
34065;BME280;20339;49.754;20.158;2024-02-21T09:05:40;97038.73;;;10.04;68.41
34065;BME280;20339;49.754;20.158;2024-02-21T09:08:12;97035.98;;;10.13;69.44
34065;BME280;20339;49.754;20.158;2024-02-21T09:10:43;97032.64;;;10.04;68.86
34065;BME280;20339;49.754;20.158;2024-02-21T09:13:18;97036.38;;;9.87;67.84
34065;BME280;20339;49.754;20.158;2024-02-21T09:15:54;97032.98;;;9.45;66.70
34065;BME280;20339;49.754;20.158;2024-02-21T09:18:27;97029.73;;;9.08;66.67
34065;BME280;20339;49.754;20.158;2024-02-21T09:21:03;97032.81;;;9.12;68.51
34065;BME280;20339;49.754;20.158;2024-02-21T09:23:40;97033.84;;;9.47;69.33
34065;BME280;20339;49.754;20.158;2024-02-21T09:26:14;97039.89;;;9.26;66.71
34065;BME280;20339;49.754;20.158;2024-02-21T09:28:46;97042.16;;;8.77;67.63
34065;BME280;20339;49.754;20.158;2024-02-21T09:31:18;97039.60;;;8.66;68.32
34065;BME280;20339;49.754;20.158;2024-02-21T09:33:53;97040.98;;;8.67;69.19
34065;BME280;20339;49.754;20.158;2024-02-21T09:36:25;97043.02;;;8.79;69.89
34065;BME280;20339;49.754;20.158;2024-02-21T09:39:01;97044.58;;;8.97;69.92
34065;BME280;20339;49.754;20.158;2024-02-21T09:41:34;97049.27;;;8.91;69.55
34065;BME280;20339;49.754;20.158;2024-02-21T09:44:16;97046.54;;;8.84;69.21
34065;BME280;20339;49.754;20.158;2024-02-21T09:46:56;97043.59;;;8.61;68.94
34065;BME280;20339;49.754;20.158;2024-02-21T09:49:34;97047.98;;;8.42;69.46
34065;BME280;20339;49.754;20.158;2024-02-21T09:52:09;97039.60;;;8.66;70.66
34065;BME280;20339;49.754;20.158;2024-02-21T09:54:43;97036.15;;;8.72;70.25
34065;BME280;20339;49.754;20.158;2024-02-21T09:57:15;97036.44;;;8.85;70.73
34065;BME280;20339;49.754;20.158;2024-02-21T09:59:49;97039.13;;;8.59;68.69
34065;BME280;20339;49.754;20.158;2024-02-21T10:02:23;97035.91;;;8.15;68.61
34065;BME280;20339;49.754;20.158;2024-02-21T10:04:59;97035.45;;;7.91;69.38
34065;BME280;20339;49.754;20.158;2024-02-21T10:07:41;97036.59;;;7.88;69.59
34065;BME280;20339;49.754;20.158;2024-02-21T10:10:12;97027.76;;;7.70;69.04
34065;BME280;20339;49.754;20.158;2024-02-21T10:12:51;97035.30;;;7.62;69.68
34065;BME280;20339;49.754;20.158;2024-02-21T10:15:25;97027.61;;;7.65;69.84
34065;BME280;20339;49.754;20.158;2024-02-21T10:18:03;97026.73;;;7.73;69.98
34065;BME280;20339;49.754;20.158;2024-02-21T10:20:37;97023.96;;;8.00;70.87
34065;BME280;20339;49.754;20.158;2024-02-21T10:23:15;97021.04;;;8.22;70.66
34065;BME280;20339;49.754;20.158;2024-02-21T10:25:48;97016.55;;;8.03;68.87
34065;BME280;20339;49.754;20.158;2024-02-21T10:28:23;97021.64;;;7.93;69.45
34065;BME280;20339;49.754;20.158;2024-02-21T10:30:55;97015.02;;;7.97;69.87
34065;BME280;20339;49.754;20.158;2024-02-21T10:33:27;97012.27;;;8.09;69.95
34065;BME280;20339;49.754;20.158;2024-02-21T10:36:13;97008.97;;;8.14;69.10
34065;BME280;20339;49.754;20.158;2024-02-21T10:38:44;97002.67;;;8.30;69.94
34065;BME280;20339;49.754;20.158;2024-02-21T10:41:22;96995.30;;;8.41;69.33
34065;BME280;20339;49.754;20.158;2024-02-21T10:43:56;96991.42;;;8.43;69.46
34065;BME280;20339;49.754;20.158;2024-02-21T10:46:35;96986.60;;;8.35;68.51
34065;BME280;20339;49.754;20.158;2024-02-21T10:49:15;96980.73;;;8.23;67.62
34065;BME280;20339;49.754;20.158;2024-02-21T10:51:54;96974.80;;;8.20;67.29
34065;BME280;20339;49.754;20.158;2024-02-21T10:54:43;96970.02;;;8.31;68.01
34065;BME280;20339;49.754;20.158;2024-02-21T10:57:16;96963.80;;;8.39;68.38
34065;BME280;20339;49.754;20.158;2024-02-21T10:59:51;96956.91;;;8.30;67.37
34065;BME280;20339;49.754;20.158;2024-02-21T11:02:27;96955.39;;;8.25;67.92
34065;BME280;20339;49.754;20.158;2024-02-21T11:05:06;96954.91;;;8.29;68.58
34065;BME280;20339;49.754;20.158;2024-02-21T11:07:41;96953.87;;;8.25;67.90
34065;BME280;20339;49.754;20.158;2024-02-21T11:10:26;96958.60;;;8.06;68.03
34065;BME280;20339;49.754;20.158;2024-02-21T11:13:08;96958.50;;;8.07;68.53
34065;BME280;20339;49.754;20.158;2024-02-21T11:15:41;96948.09;;;8.05;68.33
34065;BME280;20339;49.754;20.158;2024-02-21T11:18:13;96940.20;;;8.12;69.11
34065;BME280;20339;49.754;20.158;2024-02-21T11:20:54;96939.08;;;8.27;69.14
34065;BME280;20339;49.754;20.158;2024-02-21T11:23:28;96938.92;;;8.39;69.44
34065;BME280;20339;49.754;20.158;2024-02-21T11:26:08;96934.52;;;8.68;70.01
34065;BME280;20339;49.754;20.158;2024-02-21T11:28:41;96933.80;;;8.71;68.81
34065;BME280;20339;49.754;20.158;2024-02-21T11:31:15;96934.98;;;8.60;68.64
34065;BME280;20339;49.754;20.158;2024-02-21T11:33:49;96928.59;;;8.75;69.36
34065;BME280;20339;49.754;20.158;2024-02-21T11:36:27;96930.40;;;8.82;68.71
34065;BME280;20339;49.754;20.158;2024-02-21T11:39:08;96924.33;;;8.55;67.86
34065;BME280;20339;49.754;20.158;2024-02-21T11:41:40;96918.55;;;8.51;68.56
34065;BME280;20339;49.754;20.158;2024-02-21T11:44:13;96916.48;;;8.77;69.48
34065;BME280;20339;49.754;20.158;2024-02-21T11:46:50;96925.45;;;8.86;69.09
34065;BME280;20339;49.754;20.158;2024-02-21T11:49:28;96917.34;;;8.70;68.70
34065;BME280;20339;49.754;20.158;2024-02-21T11:52:03;96913.86;;;8.55;68.07
34065;BME280;20339;49.754;20.158;2024-02-21T11:54:39;96910.15;;;8.36;67.70
34065;BME280;20339;49.754;20.158;2024-02-21T11:57:13;96918.84;;;8.26;68.20
34065;BME280;20339;49.754;20.158;2024-02-21T11:59:47;96917.73;;;8.32;67.94
34065;BME280;20339;49.754;20.158;2024-02-21T12:02:24;96910.36;;;8.28;67.55
34065;BME280;20339;49.754;20.158;2024-02-21T12:05:02;96914.23;;;8.20;68.08
34065;BME280;20339;49.754;20.158;2024-02-21T12:07:42;96913.09;;;8.17;67.90
34065;BME280;20339;49.754;20.158;2024-02-21T12:10:17;96904.41;;;8.05;67.69
34065;BME280;20339;49.754;20.158;2024-02-21T12:12:49;96906.73;;;7.99;68.30
34065;BME280;20339;49.754;20.158;2024-02-21T12:15:27;96906.46;;;7.97;68.24
34065;BME280;20339;49.754;20.158;2024-02-21T12:17:59;96904.59;;;7.91;68.76
34065;BME280;20339;49.754;20.158;2024-02-21T12:20:37;96899.91;;;7.88;68.78
34065;BME280;20339;49.754;20.158;2024-02-21T12:23:14;96899.59;;;7.80;69.24
34065;BME280;20339;49.754;20.158;2024-02-21T12:25:50;96897.55;;;7.75;69.38
34065;BME280;20339;49.754;20.158;2024-02-21T12:28:29;96898.39;;;7.76;69.75
34065;BME280;20339;49.754;20.158;2024-02-21T12:31:03;96901.02;;;7.73;69.76
34065;BME280;20339;49.754;20.158;2024-02-21T12:33:37;96905.59;;;7.71;70.17
34065;BME280;20339;49.754;20.158;2024-02-21T12:36:13;96900.84;;;7.76;70.31
34065;BME280;20339;49.754;20.158;2024-02-21T12:38:52;96899.17;;;7.68;70.26
34065;BME280;20339;49.754;20.158;2024-02-21T12:41:23;96902.45;;;7.56;70.39
34065;BME280;20339;49.754;20.158;2024-02-21T12:43:57;96892.37;;;7.48;70.67
34065;BME280;20339;49.754;20.158;2024-02-21T12:46:29;96892.77;;;7.45;71.05
34065;BME280;20339;49.754;20.158;2024-02-21T12:49:04;96888.46;;;7.47;71.35
34065;BME280;20339;49.754;20.158;2024-02-21T12:51:43;96886.52;;;7.43;71.37
34065;BME280;20339;49.754;20.158;2024-02-21T12:54:17;96891.26;;;7.35;71.43
34065;BME280;20339;49.754;20.158;2024-02-21T12:56:50;96890.01;;;7.26;71.53
34065;BME280;20339;49.754;20.158;2024-02-21T12:59:22;96887.20;;;7.24;71.79
34065;BME280;20339;49.754;20.158;2024-02-21T13:01:54;96886.50;;;7.22;71.87
34065;BME280;20339;49.754;20.158;2024-02-21T13:04:28;96881.23;;;7.13;71.50
34065;BME280;20339;49.754;20.158;2024-02-21T13:07:03;96882.63;;;7.03;71.72
34065;BME280;20339;49.754;20.158;2024-02-21T13:09:36;96882.41;;;6.98;71.84
34065;BME280;20339;49.754;20.158;2024-02-21T13:12:10;96885.58;;;6.98;72.18
34065;BME280;20339;49.754;20.158;2024-02-21T13:14:42;96883.89;;;6.99;72.28
34065;BME280;20339;49.754;20.158;2024-02-21T13:17:15;96881.13;;;6.97;72.30
34065;BME280;20339;49.754;20.158;2024-02-21T13:19:52;96876.27;;;6.91;72.18
34065;BME280;20339;49.754;20.158;2024-02-21T13:22:27;96876.45;;;6.93;72.60
34065;BME280;20339;49.754;20.158;2024-02-21T13:25:03;96872.41;;;7.05;72.79
34065;BME280;20339;49.754;20.158;2024-02-21T13:27:38;96874.70;;;7.18;72.86
34065;BME280;20339;49.754;20.158;2024-02-21T13:30:14;96867.09;;;7.29;72.90
34065;BME280;20339;49.754;20.158;2024-02-21T13:32:49;96867.67;;;7.41;72.53
34065;BME280;20339;49.754;20.158;2024-02-21T13:35:20;96862.96;;;7.53;71.98
34065;BME280;20339;49.754;20.158;2024-02-21T13:37:56;96865.64;;;7.64;71.71
34065;BME280;20339;49.754;20.158;2024-02-21T13:40:27;96859.64;;;7.81;71.68